createdAt,value
2018-09-01T00:02:30.734Z,13.32
2018-09-01T00:05:04.305Z,13.27
2018-09-01T00:07:39.750Z,13.24
2018-09-01T00:10:13.172Z,13.22
2018-09-01T00:12:46.597Z,13.17
2018-09-01T00:15:21.393Z,13.14
2018-09-01T00:17:55.486Z,13.09
2018-09-01T00:20:28.889Z,13.04
2018-09-01T00:23:02.306Z,13.01
2018-09-01T00:25:35.653Z,12.99
2018-09-01T00:28:09.137Z,12.98
2018-09-01T00:30:42.558Z,12.97
2018-09-01T00:33:16.040Z,12.95
2018-09-01T00:35:49.486Z,12.90
2018-09-01T00:38:29.499Z,12.88
2018-09-01T00:41:02.854Z,12.84
2018-09-01T00:43:36.157Z,12.81
2018-09-01T00:46:09.724Z,12.80
2018-09-01T00:48:43.223Z,12.76
2018-09-01T00:51:16.579Z,12.76
2018-09-01T00:53:49.880Z,12.73
2018-09-01T00:56:23.213Z,12.74
2018-09-01T00:58:56.516Z,12.73
2018-09-01T01:01:29.917Z,12.68
2018-09-01T01:04:03.262Z,12.59
2018-09-01T01:06:36.671Z,12.60
2018-09-01T01:09:09.979Z,12.56
2018-09-01T01:11:43.352Z,12.53
2018-09-01T01:14:16.688Z,12.51
2018-09-01T01:16:50.037Z,12.50
2018-09-01T01:19:23.369Z,12.49
2018-09-01T01:21:56.682Z,12.40
2018-09-01T01:24:30.469Z,12.38
2018-09-01T01:27:04.405Z,12.34
2018-09-01T01:29:37.775Z,12.35
2018-09-01T01:32:11.108Z,12.36
2018-09-01T01:34:44.449Z,12.36
2018-09-01T01:37:17.825Z,12.36
2018-09-01T01:39:51.341Z,12.37
2018-09-01T01:42:24.717Z,12.34
2018-09-01T01:44:58.590Z,12.34
2018-09-01T01:47:31.960Z,12.28
2018-09-01T01:50:06.730Z,12.23
2018-09-01T01:52:40.160Z,12.19
2018-09-01T01:55:13.463Z,12.18
2018-09-01T01:57:50.121Z,12.14
2018-09-01T02:00:23.448Z,12.10
2018-09-01T02:02:56.803Z,12.11
2018-09-01T02:05:33.088Z,12.13
2018-09-01T02:08:06.463Z,12.15
2018-09-01T02:10:39.817Z,12.08
2018-09-01T02:13:13.146Z,12.06
2018-09-01T02:15:46.429Z,12.09
2018-09-01T02:18:19.772Z,12.06
2018-09-01T02:20:53.119Z,11.96
2018-09-01T02:23:26.461Z,11.94
2018-09-01T02:25:59.808Z,11.97
2018-09-01T02:28:33.145Z,11.99
2018-09-01T02:31:06.554Z,12.00
2018-09-01T02:33:39.941Z,12.00
2018-09-01T02:36:13.237Z,11.98
2018-09-01T02:38:46.553Z,11.91
2018-09-01T02:41:19.938Z,11.85
2018-09-01T02:43:53.295Z,11.83
2018-09-01T02:46:26.596Z,11.79
2018-09-01T02:48:59.917Z,11.75
2018-09-01T02:51:33.233Z,11.66
2018-09-01T02:54:06.592Z,11.64
2018-09-01T02:56:39.898Z,11.67
2018-09-01T02:59:13.230Z,11.68
2018-09-01T03:01:46.522Z,11.68
2018-09-01T03:04:19.885Z,11.63
2018-09-01T03:06:57.998Z,11.61
2018-09-01T03:09:31.333Z,11.68
2018-09-01T03:12:04.678Z,11.66
2018-09-01T03:14:38.070Z,11.65
2018-09-01T03:17:11.381Z,11.62
2018-09-01T03:19:44.734Z,11.61
2018-09-01T03:22:18.058Z,11.60
2018-09-01T03:24:51.380Z,11.59
2018-09-01T03:27:24.758Z,11.58
2018-09-01T03:29:58.085Z,11.56
2018-09-01T03:32:31.445Z,11.53
2018-09-01T03:35:04.869Z,11.49
2018-09-01T03:37:38.219Z,11.44
2018-09-01T03:40:11.556Z,11.41
2018-09-01T03:42:44.904Z,11.34
2018-09-01T03:45:18.232Z,11.27
2018-09-01T03:47:51.934Z,11.27
2018-09-01T03:50:25.286Z,11.23
2018-09-01T03:52:58.584Z,11.22
2018-09-01T03:55:31.924Z,11.21
2018-09-01T03:58:05.442Z,11.12
2018-09-01T04:00:38.835Z,11.15
2018-09-01T04:03:12.146Z,11.16
2018-09-01T04:05:45.529Z,11.19
2018-09-01T04:08:18.865Z,11.19
2018-09-01T04:10:52.225Z,11.17
2018-09-01T04:13:25.562Z,11.14
2018-09-01T04:15:58.882Z,11.11
2018-09-01T04:18:32.252Z,11.11
2018-09-01T04:21:05.656Z,11.10
2018-09-01T04:23:38.992Z,11.07
2018-09-01T04:26:12.319Z,11.04
2018-09-01T04:28:45.605Z,11.03
2018-09-01T04:31:18.933Z,11.01
2018-09-01T04:33:52.242Z,11.03
2018-09-01T04:36:25.736Z,11.06
2018-09-01T04:38:59.076Z,11.05
2018-09-01T04:41:32.453Z,11.01
2018-09-01T04:44:05.793Z,10.96
2018-09-01T04:46:39.753Z,10.90
2018-09-01T04:49:13.052Z,10.87
2018-09-01T04:51:46.417Z,10.87
2018-09-01T04:54:19.729Z,10.92
2018-09-01T04:56:53.194Z,10.94
2018-09-01T04:59:26.492Z,10.91
2018-09-01T05:01:59.965Z,10.92
2018-09-01T05:04:33.272Z,10.94
2018-09-01T05:07:07.027Z,10.99
2018-09-01T05:09:40.409Z,11.03
2018-09-01T05:12:13.753Z,11.07
2018-09-01T05:14:47.100Z,11.10
2018-09-01T05:17:20.445Z,11.10
2018-09-01T05:19:53.764Z,11.10
2018-09-01T05:22:27.093Z,11.16
2018-09-01T05:25:00.475Z,11.21
2018-09-01T05:27:33.903Z,11.27
2018-09-01T05:30:08.378Z,11.30
2018-09-01T05:32:41.718Z,11.36
2018-09-01T05:35:15.040Z,11.45
2018-09-01T05:37:48.429Z,11.52
2018-09-01T05:40:21.733Z,11.61
2018-09-01T05:42:55.101Z,11.73
2018-09-01T05:45:28.424Z,11.84
2018-09-01T05:48:02.145Z,11.97
2018-09-01T05:50:35.450Z,12.07
2018-09-01T05:53:08.801Z,12.21
2018-09-01T05:55:42.107Z,12.36
2018-09-01T05:58:15.440Z,12.49
2018-09-01T06:00:50.117Z,12.62
2018-09-01T06:03:23.512Z,12.77
2018-09-01T06:05:56.973Z,12.89
2018-09-01T06:08:30.291Z,13.03
2018-09-01T06:11:03.640Z,13.17
2018-09-01T06:13:36.989Z,13.28
2018-09-01T06:16:10.367Z,13.44
2018-09-01T06:18:43.709Z,13.59
2018-09-01T06:21:17.032Z,13.73
2018-09-01T06:23:50.382Z,13.88
2018-09-01T06:26:23.732Z,14.05
2018-09-01T06:29:07.775Z,14.20
2018-09-01T06:31:44.225Z,14.37
2018-09-01T06:34:17.588Z,14.59
2018-09-01T06:36:50.891Z,14.69
2018-09-01T06:39:24.240Z,14.93
2018-09-01T06:41:57.548Z,15.02
2018-09-01T06:44:31.267Z,15.21
2018-09-01T06:47:04.573Z,15.38
2018-09-01T06:49:37.924Z,15.54
2018-09-01T06:52:11.236Z,15.71
2018-09-01T06:54:44.563Z,15.83
2018-09-01T06:57:17.853Z,15.88
2018-09-01T06:59:51.185Z,15.88
2018-09-01T07:02:24.493Z,15.92
2018-09-01T07:04:57.845Z,16.03
2018-09-01T07:07:31.233Z,16.09
2018-09-01T07:10:04.611Z,16.17
2018-09-01T07:12:37.937Z,16.25
2018-09-01T07:15:11.273Z,16.36
2018-09-01T07:17:44.885Z,16.56
2018-09-01T07:20:18.230Z,16.79
2018-09-01T07:22:51.593Z,17.07
2018-09-01T07:25:24.980Z,17.28
2018-09-01T07:27:58.297Z,17.52
2018-09-01T07:30:31.757Z,17.67
2018-09-01T07:33:05.143Z,17.85
2018-09-01T07:35:38.487Z,18.08
2018-09-01T07:38:11.836Z,18.31
2018-09-01T07:40:45.169Z,18.49
2018-09-01T07:43:18.626Z,18.63
2018-09-01T07:45:51.968Z,18.80
2018-09-01T07:48:25.298Z,19.03
2018-09-01T07:50:58.598Z,19.17
2018-09-01T07:53:32.007Z,19.38
2018-09-01T07:56:05.535Z,19.60
2018-09-01T07:58:38.754Z,19.79
2018-09-01T08:01:12.162Z,19.73
2018-09-01T08:03:45.568Z,19.62
2018-09-01T08:06:18.896Z,19.75
2018-09-01T08:08:52.244Z,19.99
2018-09-01T08:11:25.552Z,20.25
2018-09-01T08:13:58.950Z,20.44
2018-09-01T08:16:32.218Z,20.55
2018-09-01T08:19:06.034Z,20.55
2018-09-01T08:21:39.384Z,20.62
2018-09-01T08:24:12.712Z,20.84
2018-09-01T08:26:46.093Z,21.00
2018-09-01T08:29:19.402Z,21.08
2018-09-01T08:31:52.711Z,21.01
2018-09-01T08:34:26.038Z,20.88
2018-09-01T08:36:59.345Z,20.75
2018-09-01T08:39:32.721Z,20.81
2018-09-01T08:42:06.105Z,21.00
2018-09-01T08:44:39.439Z,21.21
2018-09-01T08:47:12.763Z,21.21
2018-09-01T08:49:46.121Z,21.21
2018-09-01T08:52:19.453Z,21.39
2018-09-01T08:54:52.867Z,21.69
2018-09-01T08:57:26.185Z,21.81
2018-09-01T08:59:59.526Z,21.79
2018-09-01T09:02:32.846Z,21.83
2018-09-01T09:05:06.307Z,21.84
2018-09-01T09:07:39.648Z,22.07
2018-09-01T09:10:13.000Z,22.24
2018-09-01T09:12:46.318Z,22.07
2018-09-01T09:15:19.645Z,21.88
2018-09-01T09:17:52.978Z,21.75
2018-09-01T09:20:26.357Z,21.87
2018-09-01T09:22:59.687Z,21.92
2018-09-01T09:25:33.036Z,22.03
2018-09-01T09:28:06.439Z,22.07
2018-09-01T09:30:39.793Z,22.20
2018-09-01T09:33:13.393Z,22.32
2018-09-01T09:35:46.893Z,22.01
2018-09-01T09:38:20.240Z,21.93
2018-09-01T09:40:53.640Z,22.09
2018-09-01T09:43:26.985Z,22.21
2018-09-01T09:46:00.370Z,22.25
2018-09-01T09:48:33.698Z,22.17
2018-09-01T09:51:07.059Z,22.15
2018-09-01T09:53:40.396Z,22.36
2018-09-01T09:56:13.764Z,22.42
2018-09-01T09:58:47.110Z,22.39
2018-09-01T10:01:25.730Z,22.54
2018-09-01T10:03:59.048Z,22.71
2018-09-01T10:06:32.408Z,22.70
2018-09-01T10:09:08.434Z,22.46
2018-09-01T10:11:42.593Z,22.43
2018-09-01T10:14:15.922Z,22.23
2018-09-01T10:16:49.263Z,22.17
2018-09-01T10:19:22.589Z,22.39
2018-09-01T10:21:55.898Z,22.39
2018-09-01T10:24:29.192Z,22.33
2018-09-01T10:27:02.535Z,22.23
2018-09-01T10:29:35.841Z,22.30
2018-09-01T10:32:09.356Z,22.44
2018-09-01T10:34:42.639Z,22.36
2018-09-01T10:37:15.969Z,22.35
2018-09-01T10:39:49.308Z,22.23
2018-09-01T10:42:22.657Z,22.19
2018-09-01T10:44:56.022Z,22.10
2018-09-01T10:47:29.449Z,21.89
2018-09-01T10:50:02.782Z,21.81
2018-09-01T10:52:37.130Z,22.28
2018-09-01T10:55:10.622Z,22.38
2018-09-01T10:57:44.028Z,22.36
2018-09-01T11:00:20.118Z,22.32
2018-09-01T11:02:53.909Z,22.28
2018-09-01T11:05:27.274Z,22.57
2018-09-01T11:08:00.733Z,23.21
2018-09-01T11:10:34.061Z,23.76
2018-09-01T11:13:07.384Z,24.20
2018-09-01T11:15:40.737Z,24.12
2018-09-01T11:18:14.029Z,24.13
2018-09-01T11:20:47.415Z,24.32
2018-09-01T11:23:20.711Z,24.45
2018-09-01T11:25:54.050Z,24.51
2018-09-01T11:28:27.386Z,24.46
2018-09-01T11:31:00.853Z,24.30
2018-09-01T11:33:34.190Z,24.28
2018-09-01T11:36:07.559Z,24.16
2018-09-01T11:38:40.860Z,23.91
2018-09-01T11:41:14.187Z,23.81
2018-09-01T11:43:47.525Z,23.66
2018-09-01T11:46:20.842Z,23.43
2018-09-01T11:48:54.163Z,23.28
2018-09-01T11:51:27.484Z,23.16
2018-09-01T11:54:00.820Z,23.03
2018-09-01T11:56:34.136Z,22.94
2018-09-01T11:59:07.452Z,23.05
2018-09-01T12:01:40.793Z,23.34
2018-09-01T12:04:15.076Z,23.61
2018-09-01T12:06:48.419Z,23.65
2018-09-01T12:09:21.748Z,23.58
2018-09-01T12:11:55.064Z,23.64
2018-09-01T12:14:28.369Z,23.76
2018-09-01T12:17:01.772Z,23.91
2018-09-01T12:19:35.110Z,23.86
2018-09-01T12:22:08.498Z,24.02
2018-09-01T12:24:41.774Z,24.31
2018-09-01T12:27:15.237Z,24.35
2018-09-01T12:29:48.545Z,24.47
2018-09-01T12:32:21.893Z,24.61
2018-09-01T12:34:55.197Z,24.69
2018-09-01T12:37:28.529Z,24.82
2018-09-01T12:40:01.893Z,24.94
2018-09-01T12:42:35.205Z,24.93
2018-09-01T12:45:08.556Z,25.37
2018-09-01T12:47:41.870Z,25.79
2018-09-01T12:50:15.188Z,26.00
2018-09-01T12:52:48.537Z,25.95
2018-09-01T12:55:21.838Z,25.81
2018-09-01T12:57:55.168Z,25.60
2018-09-01T13:00:28.470Z,25.42
2018-09-01T13:03:01.864Z,25.25
2018-09-01T13:05:35.202Z,25.14
2018-09-01T13:08:08.678Z,25.04
2018-09-01T13:10:42.144Z,24.96
2018-09-01T13:13:15.488Z,24.92
2018-09-01T13:15:48.789Z,24.88
2018-09-01T13:18:22.097Z,24.76
2018-09-01T13:20:55.412Z,24.70
2018-09-01T13:23:28.725Z,24.59
2018-09-01T13:26:02.083Z,24.66
2018-09-01T13:28:35.489Z,24.65
2018-09-01T13:31:15.409Z,24.44
2018-09-01T13:33:48.725Z,24.28
2018-09-01T13:36:22.113Z,24.07
2018-09-01T13:38:55.501Z,24.05
2018-09-01T13:41:28.823Z,24.03
2018-09-01T13:44:02.156Z,24.07
2018-09-01T13:46:35.449Z,24.08
2018-09-01T13:49:08.780Z,24.03
2018-09-01T13:51:42.096Z,23.89
2018-09-01T13:54:15.401Z,23.93
2018-09-01T13:56:48.714Z,23.87
2018-09-01T13:59:22.041Z,23.92
2018-09-01T14:01:55.347Z,23.91
2018-09-01T14:04:28.685Z,23.84
2018-09-01T14:07:02.018Z,23.86
2018-09-01T14:09:35.380Z,23.90
2018-09-01T14:12:08.688Z,23.93
2018-09-01T14:14:42.131Z,23.85
2018-09-01T14:17:15.355Z,23.91
2018-09-01T14:19:48.717Z,23.97
2018-09-01T14:22:22.033Z,24.01
2018-09-01T14:24:55.349Z,23.91
2018-09-01T14:27:28.693Z,24.01
2018-09-01T14:30:02.000Z,23.98
2018-09-01T14:32:35.346Z,24.01
2018-09-01T14:35:10.047Z,24.06
2018-09-01T14:37:43.372Z,24.10
2018-09-01T14:40:16.674Z,24.15
2018-09-01T14:42:49.989Z,24.29
2018-09-01T14:45:23.310Z,24.39
2018-09-01T14:47:56.623Z,24.44
2018-09-01T14:50:29.933Z,24.48
2018-09-01T14:53:03.258Z,24.47
2018-09-01T14:55:36.556Z,24.41
2018-09-01T14:58:09.893Z,24.31
2018-09-01T15:00:43.232Z,24.21
2018-09-01T15:03:16.589Z,24.14
2018-09-01T15:05:49.972Z,24.01
2018-09-01T15:08:23.333Z,23.89
2018-09-01T15:10:57.507Z,23.85
2018-09-01T15:13:30.931Z,23.77
2018-09-01T15:16:04.351Z,23.73
2018-09-01T15:18:37.767Z,23.73
2018-09-01T15:21:11.100Z,23.74
2018-09-01T15:23:44.440Z,23.68
2018-09-01T15:26:17.760Z,23.64
2018-09-01T15:28:51.105Z,23.62
2018-09-01T15:31:24.465Z,23.52
2018-09-01T15:33:58.648Z,23.51
2018-09-01T15:36:31.971Z,23.52
2018-09-01T15:39:05.940Z,23.47
2018-09-01T15:41:39.236Z,23.38
2018-09-01T15:44:12.686Z,23.36
2018-09-01T15:46:46.741Z,23.31
2018-09-01T15:49:20.068Z,23.23
2018-09-01T15:51:53.399Z,23.18
2018-09-01T15:54:26.924Z,23.16
2018-09-01T15:57:00.313Z,23.14
2018-09-01T15:59:33.640Z,23.09
2018-09-01T16:02:07.357Z,23.04
2018-09-01T16:04:40.705Z,23.00
2018-09-01T16:07:14.345Z,22.97
2018-09-01T16:09:47.664Z,22.97
2018-09-01T16:12:20.960Z,22.98
2018-09-01T16:14:54.291Z,22.97
2018-09-01T16:17:27.592Z,22.94
2018-09-01T16:20:00.936Z,22.89
2018-09-01T16:22:34.257Z,22.87
2018-09-01T16:25:07.664Z,22.85
2018-09-01T16:27:40.972Z,22.83
2018-09-01T16:30:14.292Z,22.80
2018-09-01T16:32:47.592Z,22.73
2018-09-01T16:35:20.946Z,22.71
2018-09-01T16:37:54.276Z,22.67
2018-09-01T16:40:27.632Z,22.61
2018-09-01T16:43:00.941Z,22.60
2018-09-01T16:45:34.323Z,22.62
2018-09-01T16:48:07.621Z,22.60
2018-09-01T16:50:40.957Z,22.60
2018-09-01T16:53:14.277Z,22.60
2018-09-01T16:55:47.630Z,22.54
2018-09-01T16:58:20.929Z,22.52
2018-09-01T17:00:54.323Z,22.47
2018-09-01T17:03:27.604Z,22.43
2018-09-01T17:06:00.953Z,22.39
2018-09-01T17:08:34.271Z,22.31
2018-09-01T17:11:07.592Z,22.32
2018-09-01T17:13:40.890Z,22.24
2018-09-01T17:16:14.221Z,22.21
2018-09-01T17:18:47.509Z,22.17
2018-09-01T17:21:20.817Z,22.11
2018-09-01T17:23:54.133Z,22.05
2018-09-01T17:26:27.453Z,21.91
2018-09-01T17:29:00.760Z,21.85
2018-09-01T17:31:34.103Z,21.78
2018-09-01T17:34:07.416Z,21.73
2018-09-01T17:36:40.729Z,21.62
2018-09-01T17:39:14.327Z,21.47
2018-09-01T17:41:47.805Z,21.30
2018-09-01T17:44:21.113Z,21.18
2018-09-01T17:46:54.425Z,21.02
2018-09-01T17:49:27.786Z,20.87
2018-09-01T17:52:01.111Z,20.78
2018-09-01T17:54:34.555Z,20.69
2018-09-01T17:57:08.444Z,20.61
2018-09-01T17:59:41.739Z,20.45
2018-09-01T18:02:15.241Z,20.32
2018-09-01T18:04:48.593Z,20.20
2018-09-01T18:07:21.932Z,20.07
2018-09-01T18:09:55.295Z,19.93
2018-09-01T18:12:29.055Z,19.76
2018-09-01T18:15:02.552Z,19.67
2018-09-01T18:17:35.944Z,19.59
2018-09-01T18:20:09.318Z,19.46
2018-09-01T18:22:42.626Z,19.35
2018-09-01T18:25:15.972Z,19.24
2018-09-01T18:27:49.286Z,19.21
2018-09-01T18:30:22.618Z,19.10
2018-09-01T18:32:55.928Z,19.00
2018-09-01T18:35:29.254Z,18.93
2018-09-01T18:38:02.612Z,18.83
2018-09-01T18:40:35.940Z,18.73
2018-09-01T18:43:09.284Z,18.64
2018-09-01T18:45:42.656Z,18.52
2018-09-01T18:48:15.981Z,18.41
2018-09-01T18:50:49.324Z,18.34
2018-09-01T18:53:22.688Z,18.29
2018-09-01T18:55:56.005Z,18.18
2018-09-01T18:58:29.308Z,18.06
2018-09-01T19:01:02.790Z,18.01
2018-09-01T19:03:36.499Z,17.95
2018-09-01T19:06:09.892Z,17.86
2018-09-01T19:08:43.252Z,17.69
2018-09-01T19:11:16.600Z,17.66
2018-09-01T19:13:49.958Z,17.60
2018-09-01T19:16:23.381Z,17.50
2018-09-01T19:18:56.684Z,17.38
2018-09-01T19:21:30.047Z,17.28
2018-09-01T19:24:03.390Z,17.28
2018-09-01T19:26:36.735Z,17.20
2018-09-01T19:29:10.156Z,17.16
2018-09-01T19:31:43.680Z,17.07
2018-09-01T19:34:17.010Z,17.02
2018-09-01T19:36:50.353Z,16.99
2018-09-01T19:39:23.668Z,16.93
2018-09-01T19:41:57.015Z,16.84
2018-09-01T19:44:30.370Z,16.74
2018-09-01T19:47:03.735Z,16.62
2018-09-01T19:49:37.052Z,16.61
2018-09-01T19:52:10.376Z,16.56
2018-09-01T19:54:43.705Z,16.54
2018-09-01T19:57:17.110Z,16.51
2018-09-01T19:59:50.545Z,16.44
2018-09-01T20:02:24.118Z,16.34
2018-09-01T20:04:57.485Z,16.19
2018-09-01T20:07:30.825Z,16.18
2018-09-01T20:10:04.176Z,16.19
2018-09-01T20:12:37.557Z,16.17
2018-09-01T20:15:10.945Z,16.17
2018-09-01T20:17:44.316Z,16.14
2018-09-01T20:20:17.681Z,16.09
2018-09-01T20:22:51.128Z,16.04
2018-09-01T20:25:24.598Z,16.03
2018-09-01T20:27:57.872Z,16.02
2018-09-01T20:30:31.281Z,15.98
2018-09-01T20:33:04.634Z,15.92
2018-09-01T20:35:43.221Z,15.88
2018-09-01T20:38:16.565Z,15.83
2018-09-01T20:40:49.930Z,15.77
2018-09-01T20:43:23.672Z,15.70
2018-09-01T20:45:56.987Z,15.66
2018-09-01T20:48:30.389Z,15.58
2018-09-01T20:51:05.322Z,15.53
2018-09-01T20:53:38.769Z,15.51
2018-09-01T20:56:12.098Z,15.47
2018-09-01T20:58:45.435Z,15.43
2018-09-01T21:01:18.745Z,15.43
2018-09-01T21:03:52.168Z,15.43
2018-09-01T21:06:28.691Z,15.42
2018-09-01T21:09:03.230Z,15.37
2018-09-01T21:11:36.639Z,15.27
2018-09-01T21:14:10.231Z,15.19
2018-09-01T21:16:43.624Z,15.13
2018-09-01T21:19:16.989Z,15.10
2018-09-01T21:21:50.409Z,14.98
2018-09-01T21:24:23.768Z,14.99
2018-09-01T21:26:57.114Z,14.89
2018-09-01T21:29:30.477Z,14.87
2018-09-01T21:32:03.817Z,14.84
2018-09-01T21:34:37.222Z,14.71
2018-09-01T21:37:10.543Z,14.67
2018-09-01T21:39:43.888Z,14.71
2018-09-01T21:42:17.204Z,14.75
2018-09-01T21:44:50.546Z,14.69
2018-09-01T21:47:23.900Z,14.64
2018-09-01T21:49:57.241Z,14.63
2018-09-01T21:52:30.739Z,14.60
2018-09-01T21:55:04.130Z,14.53
2018-09-01T21:57:37.433Z,14.55
2018-09-01T22:00:11.920Z,14.58
2018-09-01T22:02:45.225Z,14.60
2018-09-01T22:05:19.349Z,14.56
2018-09-01T22:07:52.723Z,14.56
2018-09-01T22:10:26.026Z,14.49
2018-09-01T22:12:59.312Z,14.46
2018-09-01T22:15:32.672Z,14.48
2018-09-01T22:18:06.086Z,14.45
2018-09-01T22:20:39.389Z,14.44
2018-09-01T22:23:12.678Z,14.44
2018-09-01T22:25:46.021Z,14.37
2018-09-01T22:28:19.352Z,14.34
2018-09-01T22:30:52.671Z,14.34
2018-09-01T22:33:26.463Z,14.28
2018-09-01T22:36:00.135Z,14.21
2018-09-01T22:38:33.615Z,14.12
2018-09-01T22:41:07.087Z,14.07
2018-09-01T22:43:40.510Z,14.08
2018-09-01T22:46:13.972Z,14.09
2018-09-01T22:48:47.519Z,14.10
2018-09-01T22:51:21.058Z,14.08
2018-09-01T22:53:54.471Z,14.07
2018-09-01T22:56:28.065Z,14.02
2018-09-01T22:59:02.035Z,13.98
2018-09-01T23:01:35.635Z,13.97
2018-09-01T23:04:09.061Z,13.88
2018-09-01T23:06:42.622Z,13.87
2018-09-01T23:09:15.924Z,13.87
2018-09-01T23:11:49.724Z,13.78
2018-09-01T23:14:23.197Z,13.72
2018-09-01T23:16:56.490Z,13.71
2018-09-01T23:19:29.861Z,13.68
2018-09-01T23:22:03.177Z,13.65
2018-09-01T23:24:36.470Z,13.64
2018-09-01T23:27:09.768Z,13.61
2018-09-01T23:29:43.065Z,13.59
2018-09-01T23:32:16.372Z,13.52
2018-09-01T23:34:50.506Z,13.46
2018-09-01T23:37:23.841Z,13.34
2018-09-01T23:39:57.128Z,13.31
2018-09-01T23:42:30.542Z,13.32
2018-09-01T23:45:04.034Z,13.32
2018-09-01T23:47:37.529Z,13.30
2018-09-01T23:50:10.822Z,13.18
2018-09-01T23:52:44.132Z,13.11
2018-09-01T23:55:17.432Z,13.06
2018-09-01T23:57:50.752Z,13.03
